createdAt,value
2023-06-08T00:00:08.102Z,20.25
2023-06-08T00:01:07.872Z,20.23
2023-06-08T00:02:07.910Z,20.20
2023-06-08T00:03:08.062Z,20.24
2023-06-08T00:04:08.062Z,20.27
2023-06-08T00:05:08.207Z,20.24
2023-06-08T00:06:08.166Z,20.21
2023-06-08T00:07:08.227Z,20.17
2023-06-08T00:08:08.248Z,20.14
2023-06-08T00:09:08.310Z,20.10
2023-06-08T00:10:08.550Z,20.08
2023-06-08T00:11:08.509Z,20.07
2023-06-08T00:12:08.401Z,20.07
2023-06-08T00:13:08.427Z,20.07
2023-06-08T00:14:08.455Z,20.07
2023-06-08T00:15:08.555Z,20.08
2023-06-08T00:16:08.533Z,20.08
2023-06-08T00:17:08.522Z,20.09
2023-06-08T00:18:08.680Z,20.10
2023-06-08T00:19:08.608Z,20.11
2023-06-08T00:20:08.752Z,20.15
2023-06-08T00:21:08.596Z,20.17
2023-06-08T00:22:08.724Z,20.20
2023-06-08T00:23:08.735Z,20.21
2023-06-08T00:24:08.950Z,20.22
2023-06-08T00:25:08.876Z,20.19
2023-06-08T00:26:08.908Z,20.15
2023-06-08T00:27:08.913Z,20.11
2023-06-08T00:28:08.930Z,20.06
2023-06-08T00:29:08.897Z,20.07
2023-06-08T00:30:09.142Z,20.06
2023-06-08T00:31:08.995Z,20.06
2023-06-08T00:32:09.034Z,20.01
2023-06-08T00:33:08.980Z,19.96
2023-06-08T00:34:08.986Z,19.92
2023-06-08T00:35:08.975Z,19.86
2023-06-08T00:36:09.018Z,19.80
2023-06-08T00:37:09.041Z,19.76
2023-06-08T00:38:09.058Z,19.71
2023-06-08T00:39:09.089Z,19.69
2023-06-08T00:40:09.432Z,19.67
2023-06-08T00:41:09.117Z,19.70
2023-06-08T00:42:09.139Z,19.75
2023-06-08T00:43:09.201Z,19.77
2023-06-08T00:44:09.185Z,19.79
2023-06-08T00:45:09.244Z,19.80
2023-06-08T00:46:09.322Z,19.81
2023-06-08T00:47:09.295Z,19.84
2023-06-08T00:48:09.378Z,19.85
2023-06-08T00:49:09.365Z,19.85
2023-06-08T00:50:09.414Z,19.86
2023-06-08T00:51:09.416Z,19.84
2023-06-08T00:52:12.600Z,19.83
2023-06-08T00:53:09.706Z,19.84
2023-06-08T00:54:09.411Z,19.82
2023-06-08T00:55:09.397Z,19.76
2023-06-08T00:56:09.398Z,19.71
2023-06-08T00:57:09.384Z,19.65
2023-06-08T00:58:09.380Z,19.64
2023-06-08T00:59:09.368Z,19.64
2023-06-08T01:00:09.461Z,19.62
2023-06-08T01:01:09.369Z,19.60
2023-06-08T01:02:09.368Z,19.61
2023-06-08T01:03:09.715Z,19.60
2023-06-08T01:04:09.357Z,19.61
2023-06-08T01:05:09.352Z,19.60
2023-06-08T01:06:09.563Z,19.57
2023-06-08T01:07:09.352Z,19.57
2023-06-08T01:08:09.352Z,19.57
2023-06-08T01:09:09.322Z,19.58
2023-06-08T01:10:09.382Z,19.54
2023-06-08T01:11:09.287Z,19.50
2023-06-08T01:12:09.293Z,19.46
2023-06-08T01:13:09.305Z,19.44
2023-06-08T01:14:09.283Z,19.43
2023-06-08T01:15:09.304Z,19.43
2023-06-08T01:16:09.387Z,19.41
2023-06-08T01:17:09.268Z,19.40
2023-06-08T01:18:09.344Z,19.41
2023-06-08T01:19:09.260Z,19.41
2023-06-08T01:20:09.441Z,19.38
2023-06-08T01:21:09.258Z,19.39
2023-06-08T01:22:09.226Z,19.36
2023-06-08T01:23:09.234Z,19.30
2023-06-08T01:24:09.319Z,19.28
2023-06-08T01:25:09.216Z,19.26
2023-06-08T01:26:09.193Z,19.27
2023-06-08T01:27:09.214Z,19.28
2023-06-08T01:28:09.184Z,19.28
2023-06-08T01:29:09.195Z,19.28
2023-06-08T01:30:09.756Z,19.29
2023-06-08T01:31:09.206Z,19.34
2023-06-08T01:32:09.199Z,19.36
2023-06-08T01:33:09.212Z,19.37
2023-06-08T01:34:09.148Z,19.32
2023-06-08T01:35:09.167Z,19.34
2023-06-08T01:36:09.224Z,19.33
2023-06-08T01:37:09.272Z,19.30
2023-06-08T01:38:09.301Z,19.24
2023-06-08T01:39:09.364Z,19.21
2023-06-08T01:40:09.717Z,19.18
2023-06-08T01:41:09.494Z,19.20
2023-06-08T01:42:09.553Z,19.18
2023-06-08T01:43:09.701Z,19.15
2023-06-08T01:44:09.683Z,19.18
2023-06-08T01:45:09.754Z,19.22
2023-06-08T01:46:09.919Z,19.22
2023-06-08T01:47:10.090Z,19.24
2023-06-08T01:48:09.996Z,19.26
2023-06-08T01:49:10.036Z,19.29
2023-06-08T01:50:10.272Z,19.30
2023-06-08T01:51:10.092Z,19.30
2023-06-08T01:52:10.862Z,19.27
2023-06-08T01:53:10.249Z,19.28
2023-06-08T01:54:10.317Z,19.23
2023-06-08T01:55:10.381Z,19.24
2023-06-08T01:56:10.409Z,19.24
2023-06-08T01:57:10.488Z,19.24
2023-06-08T01:58:10.552Z,19.28
2023-06-08T01:59:10.588Z,19.32
2023-06-08T02:00:10.667Z,19.34
2023-06-08T02:01:10.790Z,19.33
2023-06-08T02:02:10.767Z,19.26
2023-06-08T02:03:10.864Z,19.27
2023-06-08T02:04:10.869Z,19.27
2023-06-08T02:05:10.898Z,19.24
2023-06-08T02:06:10.949Z,19.23
2023-06-08T02:07:10.982Z,19.22
2023-06-08T02:08:11.073Z,19.20
2023-06-08T02:09:11.125Z,19.18
2023-06-08T02:10:11.185Z,19.18
2023-06-08T02:11:11.239Z,19.21
2023-06-08T02:12:11.302Z,19.26
2023-06-08T02:13:11.347Z,19.28
2023-06-08T02:14:11.449Z,19.28
2023-06-08T02:15:11.459Z,19.29
2023-06-08T02:16:11.568Z,19.28
2023-06-08T02:17:11.682Z,19.26
2023-06-08T02:18:11.674Z,19.26
2023-06-08T02:19:11.635Z,19.24
2023-06-08T02:20:11.699Z,19.20
2023-06-08T02:21:11.778Z,19.19
2023-06-08T02:22:11.839Z,19.19
2023-06-08T02:23:11.889Z,19.18
2023-06-08T02:24:11.983Z,19.14
2023-06-08T02:25:12.000Z,19.11
2023-06-08T02:26:12.054Z,19.10
2023-06-08T02:27:12.147Z,19.08
2023-06-08T02:28:12.210Z,19.07
2023-06-08T02:29:12.217Z,19.05
2023-06-08T02:30:12.286Z,19.07
2023-06-08T02:31:12.327Z,19.07
2023-06-08T02:32:12.320Z,19.05
2023-06-08T02:33:12.390Z,19.05
2023-06-08T02:34:12.381Z,19.03
2023-06-08T02:35:12.396Z,19.01
2023-06-08T02:36:12.499Z,19.00
2023-06-08T02:37:12.487Z,18.97
2023-06-08T02:38:12.435Z,18.95
2023-06-08T02:39:12.675Z,18.93
2023-06-08T02:40:12.510Z,18.98
2023-06-08T02:41:12.497Z,19.01
2023-06-08T02:42:12.476Z,19.02
2023-06-08T02:43:12.501Z,19.00
2023-06-08T02:44:12.507Z,18.98
2023-06-08T02:45:12.505Z,18.99
2023-06-08T02:46:12.565Z,19.00
2023-06-08T02:47:12.540Z,19.00
2023-06-08T02:48:12.535Z,18.98
2023-06-08T02:49:12.561Z,18.97
2023-06-08T02:50:12.549Z,18.97
2023-06-08T02:51:12.583Z,18.97
2023-06-08T02:52:12.563Z,18.98
2023-06-08T02:53:12.598Z,18.99
2023-06-08T02:54:12.629Z,19.00
2023-06-08T02:55:12.719Z,19.01
2023-06-08T02:56:12.742Z,19.03
2023-06-08T02:57:12.807Z,19.03
2023-06-08T02:58:12.861Z,19.01
2023-06-08T02:59:12.840Z,19.01
2023-06-08T03:00:13.114Z,19.02
2023-06-08T03:01:20.989Z,19.03
2023-06-08T03:02:14.025Z,18.97
2023-06-08T03:03:13.036Z,18.97
2023-06-08T03:04:12.966Z,18.95
2023-06-08T03:05:12.887Z,18.94
2023-06-08T03:06:12.900Z,18.93
2023-06-08T03:07:12.871Z,18.92
2023-06-08T03:08:12.914Z,18.93
2023-06-08T03:09:12.847Z,18.91
2023-06-08T03:10:13.036Z,18.91
2023-06-08T03:11:12.847Z,18.91
2023-06-08T03:12:12.800Z,18.90
2023-06-08T03:13:12.814Z,18.91
2023-06-08T03:14:12.795Z,18.88
2023-06-08T03:15:12.826Z,18.84
2023-06-08T03:16:12.836Z,18.82
2023-06-08T03:17:12.799Z,18.82
2023-06-08T03:18:13.271Z,18.80
2023-06-08T03:19:12.882Z,18.80
2023-06-08T03:20:12.964Z,18.79
2023-06-08T03:21:12.972Z,18.79
2023-06-08T03:22:13.050Z,18.81
2023-06-08T03:23:13.068Z,18.83
2023-06-08T03:24:13.216Z,18.85
2023-06-08T03:25:13.213Z,18.85
2023-06-08T03:26:13.268Z,18.84
2023-06-08T03:27:13.318Z,18.84
2023-06-08T03:28:13.362Z,18.83
2023-06-08T03:29:13.377Z,18.81
2023-06-08T03:30:14.250Z,18.83
2023-06-08T03:31:14.284Z,18.84
2023-06-08T03:32:13.489Z,18.83
2023-06-08T03:33:13.489Z,18.83
2023-06-08T03:34:13.535Z,18.84
2023-06-08T03:35:13.547Z,18.85
2023-06-08T03:36:13.561Z,18.86
2023-06-08T03:37:13.582Z,18.87
2023-06-08T03:38:13.580Z,18.84
2023-06-08T03:39:13.662Z,18.84
2023-06-08T03:40:13.618Z,18.83
2023-06-08T03:41:13.668Z,18.79
2023-06-08T03:42:13.608Z,18.79
2023-06-08T03:43:13.667Z,18.80
2023-06-08T03:44:13.646Z,18.80
2023-06-08T03:45:13.653Z,18.81
2023-06-08T03:46:13.723Z,18.81
2023-06-08T03:47:13.669Z,18.79
2023-06-08T03:48:13.672Z,18.76
2023-06-08T03:49:13.702Z,18.77
2023-06-08T03:50:13.660Z,18.77
2023-06-08T03:51:13.693Z,18.79
2023-06-08T03:52:13.685Z,18.79
2023-06-08T03:53:13.724Z,18.80
2023-06-08T03:54:13.725Z,18.80
2023-06-08T03:55:13.707Z,18.80
2023-06-08T03:56:13.738Z,18.81
2023-06-08T03:57:13.775Z,18.82
2023-06-08T03:58:13.841Z,18.83
2023-06-08T03:59:13.741Z,18.84
2023-06-08T04:00:13.775Z,18.84
2023-06-08T04:01:13.814Z,18.84
2023-06-08T04:02:13.934Z,18.86
2023-06-08T04:03:13.929Z,18.85
2023-06-08T04:04:13.844Z,18.86
2023-06-08T04:05:13.819Z,18.85
2023-06-08T04:06:13.860Z,18.80
2023-06-08T04:07:13.887Z,18.80
2023-06-08T04:08:13.828Z,18.82
2023-06-08T04:09:13.863Z,18.82
2023-06-08T04:10:13.832Z,18.84
2023-06-08T04:11:13.911Z,18.78
2023-06-08T04:12:13.901Z,18.77
2023-06-08T04:13:13.935Z,18.74
2023-06-08T04:14:13.915Z,18.70
2023-06-08T04:15:13.882Z,18.70
2023-06-08T04:16:14.017Z,18.69
2023-06-08T04:17:13.910Z,18.68
2023-06-08T04:18:13.946Z,18.63
2023-06-08T04:19:13.975Z,18.63
2023-06-08T04:20:13.962Z,18.61
2023-06-08T04:21:13.953Z,18.62
2023-06-08T04:22:13.962Z,18.65
2023-06-08T04:23:14.035Z,18.70
2023-06-08T04:24:14.010Z,18.71
2023-06-08T04:25:13.998Z,18.71
2023-06-08T04:26:13.985Z,18.73
2023-06-08T04:27:13.997Z,18.76
2023-06-08T04:28:13.994Z,18.77
2023-06-08T04:29:14.110Z,18.78
2023-06-08T04:30:14.038Z,18.77
2023-06-08T04:31:14.065Z,18.77
2023-06-08T04:32:14.050Z,18.76
2023-06-08T04:33:14.104Z,18.73
2023-06-08T04:34:14.063Z,18.66
2023-06-08T04:35:14.108Z,18.67
2023-06-08T04:36:14.070Z,18.65
2023-06-08T04:37:14.060Z,18.67
2023-06-08T04:38:14.908Z,18.69
2023-06-08T04:39:14.095Z,18.73
2023-06-08T04:40:14.118Z,18.76
2023-06-08T04:41:14.128Z,18.77
2023-06-08T04:42:14.111Z,18.79
2023-06-08T04:43:14.307Z,18.82
2023-06-08T04:44:14.152Z,18.81
2023-06-08T04:45:14.140Z,18.82
2023-06-08T04:46:14.135Z,18.83
2023-06-08T04:47:14.223Z,18.83
2023-06-08T04:48:14.176Z,18.84
2023-06-08T04:49:14.139Z,18.86
2023-06-08T04:50:14.184Z,18.88
2023-06-08T04:51:14.146Z,18.90
2023-06-08T04:52:14.153Z,18.90
2023-06-08T04:53:14.218Z,18.89
2023-06-08T04:54:14.223Z,18.87
2023-06-08T04:55:14.317Z,18.89
2023-06-08T04:56:14.184Z,18.92
2023-06-08T04:57:14.193Z,18.90
2023-06-08T04:58:14.288Z,18.92
2023-06-08T04:59:14.224Z,18.95
2023-06-08T05:00:14.227Z,18.94
2023-06-08T05:01:14.217Z,18.90
2023-06-08T05:02:14.206Z,18.91
2023-06-08T05:03:14.312Z,18.90
2023-06-08T05:04:14.324Z,18.92
2023-06-08T05:05:14.270Z,18.95
2023-06-08T05:06:14.283Z,18.91
2023-06-08T05:07:14.274Z,18.87
2023-06-08T05:08:14.324Z,18.82
2023-06-08T05:09:14.300Z,18.83
2023-06-08T05:10:14.313Z,18.82
2023-06-08T05:11:14.312Z,18.84
2023-06-08T05:12:14.340Z,18.87
2023-06-08T05:13:14.358Z,18.91
2023-06-08T05:14:14.482Z,18.93
2023-06-08T05:15:14.307Z,18.91
2023-06-08T05:16:14.366Z,18.81
2023-06-08T05:17:14.457Z,18.80
2023-06-08T05:18:14.448Z,18.83
2023-06-08T05:19:14.366Z,18.81
2023-06-08T05:20:14.354Z,18.83
2023-06-08T05:21:14.367Z,18.85
2023-06-08T05:22:14.395Z,18.89
2023-06-08T05:23:14.370Z,18.87
2023-06-08T05:24:14.562Z,18.84
2023-06-08T05:25:14.368Z,18.83
2023-06-08T05:26:14.370Z,18.84
2023-06-08T05:27:14.362Z,18.87
2023-06-08T05:28:14.396Z,18.85
2023-06-08T05:29:14.447Z,18.86
2023-06-08T05:30:14.493Z,18.83
2023-06-08T05:31:14.651Z,18.83
2023-06-08T05:32:14.625Z,18.89
2023-06-08T05:33:14.666Z,18.87
2023-06-08T05:34:14.651Z,18.87
2023-06-08T05:35:14.661Z,18.91
2023-06-08T05:36:14.664Z,18.93
2023-06-08T05:37:14.708Z,18.98
2023-06-08T05:38:14.738Z,19.03
2023-06-08T05:39:14.745Z,19.03
2023-06-08T05:40:14.816Z,19.02
2023-06-08T05:41:14.758Z,19.00
2023-06-08T05:42:14.773Z,19.01
2023-06-08T05:43:14.831Z,18.96
2023-06-08T05:44:14.783Z,18.98
2023-06-08T05:45:15.787Z,18.93
2023-06-08T05:46:14.817Z,18.93
2023-06-08T05:47:14.797Z,18.96
2023-06-08T05:48:14.879Z,18.97
2023-06-08T05:49:14.899Z,19.00
2023-06-08T05:50:14.835Z,19.02
2023-06-08T05:51:14.820Z,19.04
2023-06-08T05:52:14.818Z,19.03
2023-06-08T05:53:14.870Z,19.03
2023-06-08T05:54:14.859Z,19.06
2023-06-08T05:55:14.953Z,19.08
2023-06-08T05:56:14.963Z,19.09
2023-06-08T05:57:15.007Z,19.16
2023-06-08T05:58:15.105Z,19.22
2023-06-08T05:59:15.115Z,19.24
2023-06-08T06:00:15.175Z,19.29
2023-06-08T06:01:15.254Z,19.34
2023-06-08T06:02:15.298Z,19.35
2023-06-08T06:03:15.537Z,19.38
2023-06-08T06:04:22.650Z,19.39
2023-06-08T06:05:16.517Z,19.43
2023-06-08T06:06:16.304Z,19.45
2023-06-08T06:07:15.399Z,19.49
2023-06-08T06:08:15.392Z,19.53
2023-06-08T06:09:15.371Z,19.59
2023-06-08T06:10:15.383Z,19.61
2023-06-08T06:11:15.394Z,19.63
2023-06-08T06:12:16.301Z,19.66
2023-06-08T06:13:15.402Z,19.67
2023-06-08T06:14:15.352Z,19.64
2023-06-08T06:15:15.364Z,19.63
2023-06-08T06:16:16.441Z,19.66
2023-06-08T06:17:15.395Z,19.68
2023-06-08T06:18:15.360Z,19.69
2023-06-08T06:19:15.310Z,19.68
2023-06-08T06:20:15.323Z,19.56
2023-06-08T06:21:15.296Z,19.61
2023-06-08T06:22:15.395Z,19.66
2023-06-08T06:23:15.506Z,19.74
2023-06-08T06:24:15.554Z,19.80
2023-06-08T06:25:15.517Z,19.85
2023-06-08T06:26:15.541Z,19.79
2023-06-08T06:27:16.303Z,19.80
2023-06-08T06:28:15.563Z,19.86
2023-06-08T06:29:15.517Z,19.91
2023-06-08T06:30:15.503Z,19.95
2023-06-08T06:31:15.545Z,20.00
2023-06-08T06:32:15.777Z,20.05
2023-06-08T06:33:15.744Z,20.06
2023-06-08T06:34:15.698Z,20.05
2023-06-08T06:35:15.803Z,20.11
2023-06-08T06:36:15.829Z,20.13
2023-06-08T06:37:15.853Z,20.14
2023-06-08T06:38:16.477Z,20.19
2023-06-08T06:39:16.014Z,20.22
2023-06-08T06:40:16.054Z,20.26
2023-06-08T06:41:16.136Z,20.28
2023-06-08T06:42:16.193Z,20.25
2023-06-08T06:43:16.238Z,20.31
2023-06-08T06:44:16.296Z,20.31
2023-06-08T06:45:16.353Z,20.32
2023-06-08T06:46:16.455Z,20.29
2023-06-08T06:47:16.503Z,20.32
2023-06-08T06:48:16.846Z,20.34
2023-06-08T06:49:16.560Z,20.38
2023-06-08T06:50:16.592Z,20.40
2023-06-08T06:51:16.582Z,20.48
2023-06-08T06:52:16.600Z,20.56
2023-06-08T06:53:16.613Z,20.52
2023-06-08T06:54:16.673Z,20.53
2023-06-08T06:55:16.662Z,20.54
2023-06-08T06:56:16.688Z,20.57
2023-06-08T06:57:16.666Z,20.62
2023-06-08T06:58:16.715Z,20.57
2023-06-08T06:59:16.685Z,20.64
2023-06-08T07:00:16.692Z,20.71
2023-06-08T07:01:16.725Z,20.77
2023-06-08T07:02:16.720Z,20.80
2023-06-08T07:03:16.782Z,20.83
2023-06-08T07:04:16.721Z,20.84
2023-06-08T07:05:16.745Z,20.82
2023-06-08T07:06:16.820Z,20.80
2023-06-08T07:07:16.740Z,20.76
2023-06-08T07:08:16.757Z,20.74
2023-06-08T07:09:16.759Z,20.75
2023-06-08T07:10:16.818Z,20.80
2023-06-08T07:11:16.813Z,20.83
2023-06-08T07:12:16.998Z,20.86
2023-06-08T07:13:16.801Z,20.90
2023-06-08T07:14:16.814Z,20.86
2023-06-08T07:15:16.817Z,20.91
2023-06-08T07:16:16.843Z,20.75
2023-06-08T07:17:16.848Z,20.44
2023-06-08T07:18:16.816Z,20.48
2023-06-08T07:19:16.926Z,20.63
2023-06-08T07:20:16.835Z,20.71
2023-06-08T07:21:16.837Z,20.82
2023-06-08T07:22:21.327Z,20.88
2023-06-08T07:23:18.992Z,20.97
2023-06-08T07:25:29.746Z,20.99
2023-06-08T07:25:47.328Z,20.68
2023-06-08T07:26:28.594Z,20.36
2023-06-08T07:27:16.797Z,20.49
2023-06-08T07:28:16.840Z,20.49
2023-06-08T07:29:16.830Z,20.60
2023-06-08T07:30:16.772Z,20.66
2023-06-08T07:31:16.791Z,20.70
2023-06-08T07:32:16.776Z,20.81
2023-06-08T07:33:16.761Z,20.92
2023-06-08T07:34:16.725Z,21.01
2023-06-08T07:35:16.743Z,21.11
2023-06-08T07:36:16.717Z,21.21
2023-06-08T07:37:16.737Z,21.30
2023-06-08T07:38:16.709Z,21.44
2023-06-08T07:39:16.855Z,21.49
2023-06-08T07:41:16.707Z,21.66
2023-06-08T07:42:16.681Z,21.74
2023-06-08T07:43:17.339Z,21.82
2023-06-08T07:44:16.711Z,21.88
2023-06-08T07:45:16.676Z,21.73
2023-06-08T07:46:16.706Z,21.79
2023-06-08T07:47:16.780Z,21.83
2023-06-08T07:48:16.791Z,21.89
2023-06-08T07:49:16.689Z,21.95
2023-06-08T07:50:16.695Z,21.90
2023-06-08T07:51:16.632Z,21.95
2023-06-08T07:53:16.665Z,22.06
2023-06-08T07:54:16.613Z,22.09
2023-06-08T07:55:16.610Z,22.14
2023-06-08T07:56:16.602Z,22.12
2023-06-08T07:57:17.358Z,22.13
2023-06-08T07:58:16.635Z,22.09
2023-06-08T07:59:16.579Z,22.11
2023-06-08T08:00:16.637Z,22.16
2023-06-08T08:01:17.364Z,22.22
2023-06-08T08:02:16.650Z,22.26
2023-06-08T08:03:16.634Z,22.31
2023-06-08T08:04:16.551Z,22.28
2023-06-08T08:05:16.540Z,22.31
2023-06-08T08:06:16.541Z,22.31
2023-06-08T08:07:17.373Z,22.21
2023-06-08T08:08:18.351Z,22.17
2023-06-08T08:09:16.867Z,22.18
2023-06-08T08:10:16.558Z,22.16
2023-06-08T08:11:16.477Z,22.23
2023-06-08T08:12:16.489Z,22.21
2023-06-08T08:13:16.481Z,22.13
2023-06-08T08:14:16.460Z,22.10
2023-06-08T08:15:16.490Z,22.07
2023-06-08T08:16:16.515Z,22.11
2023-06-08T08:17:16.620Z,22.13
2023-06-08T08:18:16.752Z,21.92
2023-06-08T08:19:16.720Z,21.87
2023-06-08T08:20:16.744Z,21.88
2023-06-08T08:21:16.797Z,21.90
2023-06-08T08:22:16.874Z,21.88
2023-06-08T08:23:16.958Z,21.79
2023-06-08T08:24:17.197Z,21.83
2023-06-08T08:25:17.028Z,21.81
2023-06-08T08:26:17.108Z,21.83
2023-06-08T08:27:18.589Z,21.84
2023-06-08T08:28:17.119Z,21.82
2023-06-08T08:29:17.127Z,21.81
2023-06-08T08:30:17.160Z,21.81
2023-06-08T08:31:17.242Z,21.80
2023-06-08T08:32:17.199Z,21.62
2023-06-08T08:33:18.125Z,21.60
2023-06-08T08:34:17.231Z,21.55
2023-06-08T08:35:17.274Z,21.48
2023-06-08T08:36:17.301Z,21.32
2023-06-08T08:37:17.305Z,21.02
2023-06-08T08:38:17.372Z,21.03
2023-06-08T08:39:17.415Z,20.97
2023-06-08T08:40:17.484Z,20.87
2023-06-08T08:41:17.670Z,20.87
2023-06-08T08:42:17.591Z,20.91
2023-06-08T08:43:17.627Z,20.91
2023-06-08T08:44:17.741Z,20.82
2023-06-08T08:45:17.635Z,20.77
2023-06-08T08:46:17.711Z,20.74
2023-06-08T08:47:17.665Z,20.72
2023-06-08T08:48:17.687Z,20.76
2023-06-08T08:49:17.674Z,20.77
2023-06-08T08:50:17.799Z,20.65
2023-06-08T08:51:17.746Z,20.65
2023-06-08T08:52:17.780Z,20.63
2023-06-08T08:53:17.802Z,20.62
2023-06-08T08:54:17.805Z,20.56
2023-06-08T08:55:30.380Z,20.48
2023-06-08T08:56:18.866Z,20.50
2023-06-08T08:57:17.761Z,20.45
2023-06-08T08:58:17.887Z,20.44
2023-06-08T08:59:17.790Z,20.42
2023-06-08T09:00:17.761Z,20.26
2023-06-08T09:01:17.768Z,20.24
2023-06-08T09:02:17.854Z,20.17
2023-06-08T09:03:17.794Z,20.16
2023-06-08T09:04:17.805Z,20.01
2023-06-08T09:05:17.709Z,19.92
2023-06-08T09:06:17.778Z,19.90
2023-06-08T09:07:18.354Z,19.85
2023-06-08T09:08:17.720Z,19.70
2023-06-08T09:09:17.692Z,19.67
2023-06-08T09:10:17.759Z,19.74
2023-06-08T09:11:17.702Z,19.66
2023-06-08T09:12:17.686Z,19.68
2023-06-08T09:13:17.705Z,19.61
2023-06-08T09:14:17.720Z,19.57
2023-06-08T09:15:17.824Z,19.52
2023-06-08T09:16:17.892Z,19.46
2023-06-08T09:17:17.862Z,19.41
2023-06-08T09:18:17.856Z,19.28
2023-06-08T09:19:17.852Z,19.23
2023-06-08T09:20:17.866Z,19.25
2023-06-08T09:21:17.877Z,19.18
2023-06-08T09:22:18.080Z,19.10
2023-06-08T09:23:17.952Z,19.10
2023-06-08T09:24:17.978Z,19.07
2023-06-08T09:25:17.955Z,19.07
2023-06-08T09:26:17.931Z,19.05
2023-06-08T09:27:17.954Z,19.07
2023-06-08T09:28:18.002Z,19.06
2023-06-08T09:29:18.022Z,19.06
2023-06-08T09:30:17.970Z,19.07
2023-06-08T09:31:18.085Z,19.07
2023-06-08T09:32:18.882Z,19.07
2023-06-08T09:33:18.073Z,19.01
2023-06-08T09:34:18.863Z,18.95
2023-06-08T09:35:17.985Z,18.92
2023-06-08T09:36:17.993Z,18.93
2023-06-08T09:37:17.986Z,18.86
2023-06-08T09:38:18.074Z,18.83
2023-06-08T09:39:18.054Z,18.80
2023-06-08T09:40:18.071Z,18.75
2023-06-08T09:41:18.093Z,18.76
2023-06-08T09:42:18.073Z,18.73
2023-06-08T09:43:18.103Z,18.76
2023-06-08T09:44:18.081Z,18.82
2023-06-08T09:45:18.117Z,18.80
2023-06-08T09:46:18.384Z,18.79
2023-06-08T09:47:18.150Z,18.77
2023-06-08T09:48:18.186Z,18.80
2023-06-08T09:49:18.181Z,18.82
2023-06-08T09:50:18.270Z,18.85
2023-06-08T09:51:18.192Z,18.91
2023-06-08T09:52:18.140Z,18.97
2023-06-08T09:53:18.228Z,19.00
2023-06-08T09:54:18.201Z,19.04
2023-06-08T09:55:18.259Z,19.08
2023-06-08T09:56:18.235Z,19.11
2023-06-08T09:57:18.228Z,19.12
2023-06-08T09:58:18.290Z,19.13
2023-06-08T09:59:18.287Z,19.14
2023-06-08T10:00:18.565Z,18.88
2023-06-08T10:01:18.468Z,18.92
2023-06-08T10:02:18.498Z,18.92
2023-06-08T10:03:18.712Z,19.00
2023-06-08T10:04:18.953Z,19.07
2023-06-08T10:05:18.659Z,19.09
2023-06-08T10:06:18.686Z,19.12
2023-06-08T10:07:18.747Z,19.17
2023-06-08T10:08:18.809Z,19.18
2023-06-08T10:09:18.794Z,19.20
2023-06-08T10:10:18.884Z,19.22
2023-06-08T10:11:18.885Z,19.16
2023-06-08T10:12:18.902Z,19.19
2023-06-08T10:13:18.997Z,19.24
2023-06-08T10:14:19.107Z,19.31
2023-06-08T10:15:19.074Z,19.35
2023-06-08T10:16:19.132Z,19.40
2023-06-08T10:17:19.155Z,19.44
2023-06-08T10:18:19.231Z,19.48
2023-06-08T10:19:19.281Z,19.48
2023-06-08T10:20:19.347Z,19.50
2023-06-08T10:21:19.339Z,19.54
2023-06-08T10:22:19.387Z,19.55
2023-06-08T10:23:19.479Z,19.58
2023-06-08T10:24:19.503Z,19.60
2023-06-08T10:25:19.499Z,19.58
2023-06-08T10:26:19.575Z,19.62
2023-06-08T10:27:19.602Z,19.62
2023-06-08T10:28:20.096Z,19.62
2023-06-08T10:29:22.575Z,19.61
2023-06-08T10:30:19.660Z,19.66
2023-06-08T10:31:19.720Z,19.69
2023-06-08T10:32:19.669Z,19.70
2023-06-08T10:33:19.712Z,19.74
2023-06-08T10:34:19.654Z,19.79
2023-06-08T10:35:19.699Z,19.84
2023-06-08T10:36:19.615Z,19.88
2023-06-08T10:37:19.615Z,19.94
2023-06-08T10:38:19.628Z,19.97
2023-06-08T10:39:19.632Z,19.99
2023-06-08T10:40:19.664Z,19.92
2023-06-08T10:41:19.648Z,19.96
2023-06-08T10:42:19.608Z,20.00
2023-06-08T10:43:48.335Z,20.00
2023-06-08T10:44:20.587Z,20.11
2023-06-08T10:45:20.378Z,20.23
2023-06-08T10:46:19.638Z,20.34
2023-06-08T10:47:19.559Z,20.39
2023-06-08T10:48:19.666Z,20.46
2023-06-08T10:49:19.560Z,20.50
2023-06-08T10:50:19.565Z,20.51
2023-06-08T10:51:19.544Z,20.59
2023-06-08T10:52:19.509Z,20.69
2023-06-08T10:53:19.532Z,20.75
2023-06-08T10:54:19.548Z,20.81
2023-06-08T10:55:19.561Z,20.81
2023-06-08T10:56:19.480Z,20.87
2023-06-08T10:57:19.479Z,20.93
2023-06-08T10:58:19.521Z,20.98
2023-06-08T10:59:19.509Z,20.96
2023-06-08T11:00:19.482Z,21.01
2023-06-08T11:01:19.506Z,21.05
2023-06-08T11:02:19.482Z,21.00
2023-06-08T11:03:19.539Z,21.01
2023-06-08T11:04:19.942Z,21.05
2023-06-08T11:05:19.548Z,21.05
2023-06-08T11:06:19.435Z,20.98
2023-06-08T11:07:21.162Z,21.02
2023-06-08T11:08:19.426Z,21.09
2023-06-08T11:09:19.462Z,21.15
2023-06-08T11:10:19.439Z,21.20
2023-06-08T11:11:19.450Z,21.20
2023-06-08T11:12:19.428Z,21.30
2023-06-08T11:13:19.480Z,21.39
2023-06-08T11:14:19.514Z,21.47
2023-06-08T11:15:19.575Z,21.51
2023-06-08T11:16:19.777Z,21.49
2023-06-08T11:17:19.635Z,21.51
2023-06-08T11:18:19.646Z,21.65
2023-06-08T11:19:19.659Z,21.68
2023-06-08T11:20:19.668Z,21.76
2023-06-08T11:21:19.648Z,21.87
2023-06-08T11:22:19.660Z,21.90
2023-06-08T11:23:19.666Z,21.89
2023-06-08T11:24:19.731Z,21.91
2023-06-08T11:25:19.681Z,21.93
2023-06-08T11:26:19.728Z,21.99
2023-06-08T11:27:19.731Z,22.02
2023-06-08T11:28:19.788Z,22.04
2023-06-08T11:29:19.845Z,21.98
2023-06-08T11:30:19.814Z,22.03
2023-06-08T11:31:19.973Z,22.09
2023-06-08T11:32:19.895Z,22.11
2023-06-08T11:33:19.968Z,22.15
2023-06-08T11:34:20.031Z,22.18
2023-06-08T11:35:20.056Z,22.20
2023-06-08T11:36:20.109Z,22.21
2023-06-08T11:37:20.175Z,22.18
2023-06-08T11:38:20.217Z,22.15
2023-06-08T11:39:20.274Z,22.16
2023-06-08T11:40:20.292Z,22.20
2023-06-08T11:41:20.382Z,22.22
2023-06-08T11:42:20.412Z,22.26
2023-06-08T11:43:20.415Z,22.30
2023-06-08T11:44:20.508Z,22.35
2023-06-08T11:45:20.576Z,22.34
2023-06-08T11:46:20.626Z,22.39
2023-06-08T11:47:20.724Z,22.27
2023-06-08T11:48:20.675Z,22.16
2023-06-08T11:49:20.730Z,22.22
2023-06-08T11:50:20.767Z,22.31
2023-06-08T11:51:20.779Z,22.37
2023-06-08T11:52:20.819Z,22.39
2023-06-08T11:53:20.899Z,22.50
2023-06-08T11:54:20.879Z,22.50
2023-06-08T11:55:20.869Z,22.60
2023-06-08T11:56:20.891Z,22.69
2023-06-08T11:57:20.900Z,22.79
2023-06-08T11:58:21.986Z,22.71
2023-06-08T11:59:20.965Z,22.59
2023-06-08T12:00:20.982Z,22.61
2023-06-08T12:01:20.984Z,22.59
2023-06-08T12:02:21.093Z,22.62
2023-06-08T12:03:21.109Z,22.75
2023-06-08T12:04:21.172Z,22.86
2023-06-08T12:05:23.251Z,22.89
2023-06-08T12:06:21.104Z,22.98
2023-06-08T12:07:21.205Z,23.08
2023-06-08T12:08:21.174Z,23.13
2023-06-08T12:09:21.214Z,23.14
2023-06-08T12:10:21.235Z,23.15
2023-06-08T12:11:24.115Z,23.12
2023-06-08T12:12:21.269Z,22.99
2023-06-08T12:13:21.250Z,22.95
2023-06-08T12:14:21.243Z,22.91
2023-06-08T12:15:21.255Z,22.97
2023-06-08T12:16:21.304Z,23.02
2023-06-08T12:17:21.367Z,22.97
2023-06-08T12:18:21.236Z,22.85
2023-06-08T12:19:21.219Z,22.85
2023-06-08T12:20:21.205Z,22.91
2023-06-08T12:21:21.189Z,22.92
2023-06-08T12:22:21.176Z,22.87
2023-06-08T12:23:23.823Z,22.84
2023-06-08T12:24:21.232Z,22.74
2023-06-08T12:25:21.205Z,22.60
2023-06-08T12:26:21.194Z,22.60
2023-06-08T12:27:21.146Z,22.69
2023-06-08T12:28:21.181Z,22.75
2023-06-08T12:29:23.184Z,22.81
2023-06-08T12:30:21.277Z,22.87
2023-06-08T12:31:21.244Z,22.92
2023-06-08T12:32:21.241Z,22.95
2023-06-08T12:33:21.224Z,22.99
2023-06-08T12:34:21.247Z,23.03
2023-06-08T12:35:23.164Z,23.07
2023-06-08T12:36:21.917Z,23.10
2023-06-08T12:37:21.340Z,23.13
2023-06-08T12:38:21.970Z,23.13
2023-06-08T12:39:21.446Z,23.18
2023-06-08T12:40:21.433Z,23.18
2023-06-08T12:41:21.504Z,23.21
2023-06-08T12:42:21.429Z,23.25
2023-06-08T12:43:21.387Z,23.27
2023-06-08T12:44:21.416Z,23.30
2023-06-08T12:45:21.359Z,23.34
2023-06-08T12:46:21.432Z,23.36
2023-06-08T12:47:21.376Z,23.39
2023-06-08T12:48:21.341Z,23.41
2023-06-08T12:49:21.366Z,23.46
2023-06-08T12:50:21.426Z,23.50
2023-06-08T12:51:21.501Z,23.56
2023-06-08T12:52:21.548Z,23.64
2023-06-08T12:53:21.638Z,23.65
2023-06-08T12:54:21.715Z,23.71